createdAt,value
2022-11-11T00:01:05.763Z,10.73
2022-11-11T00:03:59.495Z,12.07
2022-11-11T00:06:53.921Z,11.60
2022-11-11T00:09:47.533Z,11.13
2022-11-11T00:12:40.766Z,10.73
2022-11-11T00:15:38.979Z,9.23
2022-11-11T00:18:51.641Z,13.80
2022-11-11T00:22:03.549Z,10.70
2022-11-11T00:25:09.683Z,12.37
2022-11-11T00:28:03.000Z,8.90
2022-11-11T00:31:12.081Z,10.13
2022-11-11T00:34:05.521Z,10.80
2022-11-11T00:36:58.996Z,10.37
2022-11-11T00:39:52.435Z,14.43
2022-11-11T00:42:46.117Z,9.47
2022-11-11T00:45:39.272Z,11.50
2022-11-11T00:48:51.287Z,9.83
2022-11-11T00:51:45.520Z,11.40
2022-11-11T00:54:39.053Z,11.00
2022-11-11T00:57:32.789Z,11.03
2022-11-11T01:00:26.281Z,10.67
2022-11-11T01:03:20.383Z,17.60
2022-11-11T01:06:14.336Z,10.73
2022-11-11T01:09:08.458Z,9.60
2022-11-11T01:12:01.649Z,9.13
2022-11-11T01:14:55.381Z,9.67
2022-11-11T01:17:48.986Z,7.97
2022-11-11T01:20:42.754Z,8.87
2022-11-11T01:23:39.095Z,10.03
2022-11-11T01:26:32.620Z,18.63
2022-11-11T01:29:25.985Z,9.23
2022-11-11T01:32:19.573Z,10.00
2022-11-11T01:35:13.247Z,14.37
2022-11-11T01:38:08.241Z,8.70
2022-11-11T01:41:22.032Z,8.23
2022-11-11T01:44:19.697Z,11.30
2022-11-11T01:47:13.503Z,9.20
2022-11-11T01:50:09.217Z,11.47
2022-11-11T01:53:02.879Z,10.37
2022-11-11T01:55:58.789Z,9.93
2022-11-11T01:58:55.868Z,8.70
2022-11-11T02:01:50.494Z,9.03
2022-11-11T02:05:03.626Z,8.37
2022-11-11T02:08:13.642Z,8.80
2022-11-11T02:11:41.245Z,8.47
2022-11-11T02:14:43.615Z,8.80
2022-11-11T02:17:37.269Z,8.33
2022-11-11T02:20:38.161Z,10.70
2022-11-11T02:23:41.511Z,8.53
2022-11-11T02:26:38.135Z,8.73
2022-11-11T02:29:33.491Z,8.70
2022-11-11T02:32:27.420Z,11.87
2022-11-11T02:35:29.413Z,9.60
2022-11-11T02:38:27.221Z,9.30
2022-11-11T02:41:39.578Z,8.40
2022-11-11T02:44:33.045Z,9.50
2022-11-11T02:47:27.361Z,11.47
2022-11-11T02:50:21.239Z,10.63
2022-11-11T02:53:14.981Z,10.60
2022-11-11T02:56:08.560Z,12.73
2022-11-11T02:59:02.120Z,9.27
2022-11-11T03:01:55.676Z,9.43
2022-11-11T03:04:49.291Z,11.73
2022-11-11T03:07:43.115Z,10.93
2022-11-11T03:10:36.565Z,11.93
2022-11-11T03:13:30.358Z,13.00
2022-11-11T03:16:43.272Z,10.57
2022-11-11T03:19:37.189Z,12.37
2022-11-11T03:25:47.824Z,15.13
2022-11-11T03:28:41.400Z,13.93
2022-11-11T03:31:35.011Z,16.07
2022-11-11T03:34:28.511Z,13.47
2022-11-11T03:37:40.336Z,12.93
2022-11-11T03:40:33.666Z,13.80
2022-11-11T03:43:32.108Z,15.27
2022-11-11T03:46:25.374Z,11.50
2022-11-11T03:49:18.997Z,11.53
2022-11-11T03:52:12.770Z,11.93
2022-11-11T03:55:06.308Z,11.03
2022-11-11T03:57:59.942Z,10.93
2022-11-11T04:00:53.292Z,10.50
2022-11-11T04:04:05.352Z,10.73
2022-11-11T04:07:17.476Z,8.57
2022-11-11T04:10:25.745Z,9.77
2022-11-11T04:13:37.195Z,7.47
2022-11-11T04:16:30.717Z,10.87
2022-11-11T04:19:43.099Z,9.30
2022-11-11T04:22:42.316Z,7.47
2022-11-11T04:25:50.460Z,10.63
2022-11-11T04:29:02.072Z,7.83
2022-11-11T04:32:29.813Z,11.67
2022-11-11T04:35:24.007Z,10.40
2022-11-11T04:38:35.777Z,13.90
2022-11-11T04:41:53.707Z,9.33
2022-11-11T04:45:01.188Z,8.70
2022-11-11T04:48:09.014Z,11.23
2022-11-11T04:51:02.226Z,12.20
2022-11-11T04:53:55.657Z,9.37
2022-11-11T04:56:50.176Z,9.80
2022-11-11T04:59:43.480Z,10.87
2022-11-11T05:02:55.998Z,10.73
2022-11-11T05:06:12.011Z,10.93
2022-11-11T05:09:05.494Z,9.63
2022-11-11T05:11:59.225Z,8.13
2022-11-11T05:15:15.742Z,10.20
2022-11-11T05:18:28.271Z,11.60
2022-11-11T05:21:31.907Z,9.83
2022-11-11T05:24:43.535Z,8.90
2022-11-11T05:27:37.423Z,8.07
2022-11-11T05:30:30.948Z,8.60
2022-11-11T05:33:24.864Z,9.27
2022-11-11T05:36:18.804Z,8.10
2022-11-11T05:39:12.176Z,8.57
2022-11-11T05:42:06.538Z,7.27
2022-11-11T05:44:59.828Z,8.30
2022-11-11T05:47:53.375Z,7.33
2022-11-11T05:50:46.708Z,8.27
2022-11-11T05:53:40.270Z,7.30
2022-11-11T05:56:33.907Z,11.67
2022-11-11T05:59:27.652Z,7.30
2022-11-11T06:02:21.570Z,7.23
2022-11-11T06:05:15.207Z,7.07
2022-11-11T06:08:08.726Z,7.90
2022-11-11T06:11:02.214Z,7.80
2022-11-11T06:13:56.494Z,6.00
2022-11-11T06:16:50.181Z,6.80
2022-11-11T06:19:43.912Z,8.90
2022-11-11T06:22:56.079Z,6.27
2022-11-11T06:26:08.706Z,9.73
2022-11-11T06:29:04.292Z,6.40
2022-11-11T06:31:57.596Z,7.07
2022-11-11T06:34:51.187Z,6.43
2022-11-11T06:37:45.042Z,9.53
2022-11-11T06:40:38.633Z,7.20
2022-11-11T06:43:32.281Z,8.20
2022-11-11T06:46:27.187Z,7.67
2022-11-11T06:49:21.344Z,7.17
2022-11-11T06:52:15.084Z,8.00
2022-11-11T06:55:08.891Z,7.10
2022-11-11T06:58:17.069Z,6.80
2022-11-11T07:01:10.717Z,9.80
2022-11-11T07:04:04.464Z,6.77
2022-11-11T07:06:57.978Z,7.40
2022-11-11T07:09:51.493Z,7.10
2022-11-11T07:12:44.718Z,7.77
2022-11-11T07:15:38.180Z,10.83
2022-11-11T07:18:31.691Z,8.27
2022-11-11T07:21:24.979Z,7.50
2022-11-11T07:24:18.759Z,8.90
2022-11-11T07:27:12.386Z,7.83
2022-11-11T07:30:07.324Z,9.00
2022-11-11T07:33:00.705Z,7.50
2022-11-11T07:35:54.253Z,7.20
2022-11-11T07:38:48.028Z,6.80
2022-11-11T07:41:41.434Z,5.83
2022-11-11T07:44:34.760Z,5.87
2022-11-11T07:47:28.168Z,5.70
2022-11-11T07:50:21.850Z,5.40
2022-11-11T07:53:15.185Z,7.50
2022-11-11T07:56:09.891Z,5.67
2022-11-11T07:59:03.409Z,5.27
2022-11-11T08:01:56.703Z,5.13
2022-11-11T08:04:55.060Z,6.07
2022-11-11T08:07:49.476Z,6.30
2022-11-11T08:10:42.909Z,6.90
2022-11-11T08:13:42.075Z,8.10
2022-11-11T08:16:35.600Z,6.93
2022-11-11T08:19:29.455Z,5.83
2022-11-11T08:22:22.951Z,11.27
2022-11-11T08:25:16.826Z,7.80
2022-11-11T08:28:10.223Z,6.47
2022-11-11T08:31:04.547Z,7.43
2022-11-11T08:33:58.179Z,8.40
2022-11-11T08:36:51.649Z,8.27
2022-11-11T08:39:45.278Z,6.73
2022-11-11T08:42:38.762Z,4.97
2022-11-11T08:45:32.148Z,6.27
2022-11-11T08:48:25.794Z,6.70
2022-11-11T08:51:19.690Z,5.80
2022-11-11T08:54:13.086Z,6.20
2022-11-11T08:57:06.551Z,7.80
2022-11-11T08:59:59.976Z,6.40
2022-11-11T09:02:53.709Z,7.07
2022-11-11T09:05:47.706Z,6.47
2022-11-11T09:08:45.002Z,6.60
2022-11-11T09:11:38.656Z,8.10
2022-11-11T09:14:32.313Z,7.17
2022-11-11T09:17:25.791Z,6.70
2022-11-11T09:20:24.570Z,7.93
2022-11-11T09:23:18.723Z,6.77
2022-11-11T09:26:12.186Z,8.33
2022-11-11T09:29:05.820Z,9.00
2022-11-11T09:31:59.337Z,6.30
2022-11-11T09:34:55.249Z,5.00
2022-11-11T09:37:56.693Z,6.37
2022-11-11T09:41:21.680Z,6.43
2022-11-11T09:44:42.591Z,6.83
2022-11-11T09:47:44.208Z,6.17
2022-11-11T09:50:40.666Z,9.87
2022-11-11T09:53:38.922Z,6.10
2022-11-11T09:56:33.972Z,6.83
2022-11-11T09:59:41.719Z,7.50
2022-11-11T10:02:49.720Z,6.07
2022-11-11T10:05:52.783Z,7.93
2022-11-11T10:09:06.479Z,7.73
2022-11-11T10:12:14.158Z,6.40
2022-11-11T10:15:14.585Z,7.37
2022-11-11T10:18:25.623Z,7.47
2022-11-11T10:25:12.891Z,7.30
2022-11-11T10:28:09.935Z,5.50
2022-11-11T10:31:10.971Z,6.43
2022-11-11T10:34:13.623Z,10.23
2022-11-11T10:37:23.903Z,8.23
2022-11-11T10:40:27.068Z,6.40
2022-11-11T10:43:27.125Z,5.77
2022-11-11T10:46:29.508Z,5.53
2022-11-11T10:49:27.890Z,5.90
2022-11-11T10:52:44.900Z,5.73
2022-11-11T10:55:53.812Z,5.77
2022-11-11T10:58:49.787Z,5.10
2022-11-11T11:01:49.927Z,4.80
2022-11-11T11:05:03.427Z,5.40
2022-11-11T11:08:09.539Z,6.13
2022-11-11T11:11:14.152Z,6.47
2022-11-11T11:14:17.856Z,10.33
2022-11-11T11:17:23.575Z,5.10
2022-11-11T11:20:20.665Z,5.53
2022-11-11T11:23:14.867Z,5.40
2022-11-11T11:26:11.260Z,5.60
2022-11-11T11:29:06.478Z,4.50
2022-11-11T11:32:21.641Z,5.27
2022-11-11T11:35:35.728Z,5.57
2022-11-11T11:38:43.750Z,4.60
2022-11-11T11:41:50.376Z,4.90
2022-11-11T11:44:43.860Z,7.33
2022-11-11T11:48:29.919Z,6.40
2022-11-11T11:51:57.042Z,6.47
2022-11-11T11:55:16.083Z,5.13
2022-11-11T11:58:41.355Z,12.10
2022-11-11T12:02:17.889Z,4.73
2022-11-11T12:05:25.649Z,5.83
2022-11-11T12:09:00.289Z,4.50
2022-11-11T12:12:05.409Z,4.90
2022-11-11T12:15:14.053Z,5.23
2022-11-11T12:18:10.566Z,6.77
2022-11-11T12:21:24.091Z,5.93
2022-11-11T12:24:31.617Z,4.00
2022-11-11T12:27:55.890Z,4.30
2022-11-11T12:31:03.997Z,4.30
2022-11-11T12:34:29.271Z,3.70
2022-11-11T12:38:06.893Z,3.87
2022-11-11T12:41:16.941Z,5.33
2022-11-11T12:44:14.771Z,3.40
2022-11-11T12:47:23.954Z,4.70
2022-11-11T12:50:40.040Z,5.67
2022-11-11T12:53:56.013Z,3.73
2022-11-11T12:56:59.434Z,5.60
2022-11-11T13:00:03.892Z,2.87
2022-11-11T13:03:18.493Z,2.80
2022-11-11T13:06:57.185Z,3.00
2022-11-11T13:10:18.078Z,6.00
2022-11-11T13:13:49.134Z,5.00
2022-11-11T13:16:43.987Z,4.23
2022-11-11T13:19:44.926Z,3.07
2022-11-11T13:22:38.585Z,3.30
2022-11-11T13:25:35.441Z,2.77
2022-11-11T13:28:36.955Z,4.43
2022-11-11T13:31:39.169Z,2.80
2022-11-11T13:34:35.012Z,3.83
2022-11-11T13:37:33.328Z,3.20
2022-11-11T13:40:40.488Z,3.03
2022-11-11T13:43:42.831Z,3.20
2022-11-11T13:46:50.163Z,3.17
2022-11-11T13:49:59.639Z,2.27
2022-11-11T13:53:25.364Z,2.43
2022-11-11T13:56:41.475Z,3.43
2022-11-11T13:59:43.005Z,2.10
2022-11-11T14:02:37.021Z,3.17
2022-11-11T14:05:30.282Z,3.70
2022-11-11T14:08:45.748Z,2.70
2022-11-11T14:11:39.232Z,3.80
2022-11-11T14:14:32.432Z,3.27
2022-11-11T14:17:28.922Z,3.50
2022-11-11T14:20:38.195Z,3.50
2022-11-11T14:23:38.060Z,2.93
2022-11-11T14:26:31.453Z,5.10
2022-11-11T14:29:37.863Z,2.90
2022-11-11T14:32:55.079Z,2.63
2022-11-11T14:36:01.563Z,3.47
2022-11-11T14:39:35.245Z,2.53
2022-11-11T14:42:34.487Z,3.80
2022-11-11T14:45:31.031Z,2.07
2022-11-11T14:48:58.299Z,2.53
2022-11-11T14:51:56.069Z,1.80
2022-11-11T14:55:10.587Z,2.30
2022-11-11T14:58:22.274Z,2.57
2022-11-11T15:01:21.688Z,2.90
2022-11-11T15:04:15.035Z,3.50
2022-11-11T15:07:28.099Z,3.63
2022-11-11T15:10:35.809Z,3.30
2022-11-11T15:13:29.334Z,4.80
2022-11-11T15:17:02.333Z,4.23
2022-11-11T15:20:23.906Z,4.43
2022-11-11T15:23:34.301Z,6.67
2022-11-11T15:26:44.183Z,6.50
2022-11-11T15:30:14.776Z,6.57
2022-11-11T15:33:24.476Z,7.53
2022-11-11T15:36:33.416Z,4.10
2022-11-11T15:39:42.938Z,8.47
2022-11-11T15:42:41.059Z,8.13
2022-11-11T15:45:36.270Z,6.43
2022-11-11T15:48:40.781Z,5.97
2022-11-11T15:51:34.591Z,4.93
2022-11-11T15:54:27.986Z,4.67
2022-11-11T15:57:30.193Z,3.80
2022-11-11T16:00:30.816Z,6.50
2022-11-11T16:03:41.321Z,7.80
2022-11-11T16:06:36.977Z,4.83
2022-11-11T16:09:32.108Z,7.40
2022-11-11T16:12:36.670Z,5.17
2022-11-11T16:15:47.581Z,3.90
2022-11-11T16:19:12.722Z,4.30
2022-11-11T16:22:19.349Z,6.13
2022-11-11T16:25:21.462Z,4.57
2022-11-11T16:28:16.308Z,4.43
2022-11-11T16:31:41.099Z,4.80
2022-11-11T16:34:44.080Z,6.97
2022-11-11T16:37:53.005Z,5.70
2022-11-11T16:40:47.318Z,6.60
2022-11-11T16:43:44.116Z,7.03
2022-11-11T16:46:37.578Z,8.13
2022-11-11T16:49:41.835Z,6.30
2022-11-11T16:52:44.460Z,10.20
2022-11-11T16:55:45.421Z,9.07
2022-11-11T16:58:43.970Z,8.70
2022-11-11T17:01:46.297Z,9.57
2022-11-11T17:04:52.249Z,10.33
2022-11-11T17:07:45.874Z,11.40
2022-11-11T17:10:40.636Z,10.33
2022-11-11T17:13:39.332Z,12.13
2022-11-11T17:16:36.791Z,8.10
2022-11-11T17:19:33.012Z,9.70
2022-11-11T17:22:26.330Z,10.13
2022-11-11T17:25:20.247Z,12.53
2022-11-11T17:28:13.773Z,12.07
2022-11-11T17:31:09.074Z,17.27
2022-11-11T17:34:09.946Z,21.17
2022-11-11T17:37:03.373Z,21.90
2022-11-11T17:39:56.839Z,19.53
2022-11-11T17:42:50.478Z,19.73
2022-11-11T17:45:43.774Z,14.20
2022-11-11T17:48:37.283Z,17.97
2022-11-11T17:51:32.593Z,18.03
2022-11-11T17:54:27.273Z,14.60
2022-11-11T17:57:21.160Z,14.50
2022-11-11T18:00:16.421Z,14.30
2022-11-11T18:03:09.837Z,13.10
2022-11-11T18:06:03.557Z,13.40
2022-11-11T18:08:56.859Z,10.73
2022-11-11T18:11:50.180Z,14.77
2022-11-11T18:14:44.364Z,11.77
2022-11-11T18:17:37.966Z,9.60
2022-11-11T18:20:31.806Z,12.80
2022-11-11T18:23:25.586Z,12.90
2022-11-11T18:26:20.599Z,10.50
2022-11-11T18:29:14.185Z,10.27
2022-11-11T18:32:07.783Z,8.93
2022-11-11T18:35:01.000Z,11.47
2022-11-11T18:37:54.655Z,11.07
2022-11-11T18:40:47.957Z,9.43
2022-11-11T18:43:45.311Z,14.10
2022-11-11T18:46:39.159Z,11.43
2022-11-11T18:49:32.595Z,13.80
2022-11-11T18:52:26.457Z,11.63
2022-11-11T18:55:20.342Z,11.67
2022-11-11T18:58:14.345Z,13.57
2022-11-11T19:01:22.509Z,12.40
2022-11-11T19:04:16.488Z,16.77
2022-11-11T19:07:10.048Z,12.97
2022-11-11T19:10:03.564Z,20.03
2022-11-11T19:12:58.397Z,17.50
2022-11-11T19:15:51.958Z,16.37
2022-11-11T19:18:45.481Z,15.60
2022-11-11T19:21:39.498Z,15.80
2022-11-11T19:24:34.049Z,14.97
2022-11-11T19:27:27.956Z,15.43
2022-11-11T19:30:21.288Z,20.20
2022-11-11T19:33:14.876Z,20.57
2022-11-11T19:36:11.902Z,14.07
2022-11-11T19:39:05.777Z,18.23
2022-11-11T19:41:59.540Z,15.30
2022-11-11T19:44:53.245Z,16.10
2022-11-11T19:47:50.324Z,13.63
2022-11-11T19:50:43.990Z,17.97
2022-11-11T19:53:37.479Z,17.00
2022-11-11T19:56:31.846Z,18.47
2022-11-11T19:59:25.447Z,14.73
2022-11-11T20:02:18.800Z,15.70
2022-11-11T20:05:14.040Z,14.93
2022-11-11T20:08:07.247Z,14.00
2022-11-11T20:11:07.501Z,14.50
2022-11-11T20:14:05.150Z,14.57
2022-11-11T20:16:58.764Z,16.57
2022-11-11T20:19:52.244Z,13.73
2022-11-11T20:22:45.726Z,15.77
2022-11-11T20:25:39.078Z,17.93
2022-11-11T20:28:32.331Z,16.70
2022-11-11T20:31:27.192Z,12.70
2022-11-11T20:34:20.859Z,13.97
2022-11-11T20:37:14.239Z,14.40
2022-11-11T20:40:08.538Z,14.87
2022-11-11T20:43:02.537Z,14.30
2022-11-11T20:45:56.045Z,15.57
2022-11-11T20:48:50.601Z,18.70
2022-11-11T20:51:44.083Z,15.60
2022-11-11T20:54:38.198Z,20.50
2022-11-11T20:57:36.020Z,16.50
2022-11-11T21:00:29.644Z,14.47
2022-11-11T21:03:23.545Z,15.60
2022-11-11T21:06:18.572Z,16.07
2022-11-11T21:09:12.462Z,16.27
2022-11-11T21:12:05.960Z,16.10
2022-11-11T21:15:00.008Z,17.30
2022-11-11T21:17:53.468Z,17.50
2022-11-11T21:20:47.124Z,16.23
2022-11-11T21:23:41.573Z,17.60
2022-11-11T21:26:37.599Z,17.73
2022-11-11T21:29:31.132Z,16.37
2022-11-11T21:32:25.620Z,17.73
2022-11-11T21:35:19.214Z,17.70
2022-11-11T21:38:12.453Z,17.47
2022-11-11T21:41:11.096Z,19.60
2022-11-11T21:44:07.290Z,17.90
2022-11-11T21:47:00.895Z,16.60
2022-11-11T21:49:54.219Z,16.73
2022-11-11T21:52:47.873Z,21.50
2022-11-11T21:55:41.442Z,20.87
2022-11-11T21:58:35.705Z,16.30
2022-11-11T22:01:31.867Z,19.17
2022-11-11T22:04:25.173Z,16.83
2022-11-11T22:07:19.357Z,19.03
2022-11-11T22:10:13.093Z,20.13
2022-11-11T22:13:06.650Z,18.30
2022-11-11T22:16:34.280Z,16.00
2022-11-11T22:19:27.823Z,15.10
2022-11-11T22:22:21.174Z,13.53
2022-11-11T22:25:14.630Z,17.40
2022-11-11T22:28:08.117Z,15.03
2022-11-11T22:31:26.689Z,15.17
2022-11-11T22:34:19.930Z,14.30
2022-11-11T22:37:12.941Z,14.33
2022-11-11T22:40:07.489Z,14.17
2022-11-11T22:43:00.899Z,14.63
2022-11-11T22:45:58.582Z,13.67
2022-11-11T22:48:58.435Z,18.00
2022-11-11T22:51:51.896Z,14.90
2022-11-11T22:54:45.507Z,13.80
2022-11-11T22:57:39.025Z,15.70
2022-11-11T23:00:32.608Z,15.70
2022-11-11T23:03:26.062Z,16.93
2022-11-11T23:06:26.379Z,13.10
2022-11-11T23:09:19.952Z,16.00
2022-11-11T23:12:13.518Z,16.80
2022-11-11T23:15:07.685Z,14.40
2022-11-11T23:18:01.249Z,18.80
2022-11-11T23:21:07.748Z,12.13
2022-11-11T23:24:01.466Z,13.63
2022-11-11T23:26:54.904Z,14.37
2022-11-11T23:29:52.254Z,15.63
2022-11-11T23:32:46.052Z,16.43
2022-11-11T23:35:40.129Z,15.80
2022-11-11T23:38:34.484Z,12.50
2022-11-11T23:41:27.959Z,14.47
2022-11-11T23:44:21.228Z,14.27
2022-11-11T23:47:14.721Z,13.53
2022-11-11T23:50:09.355Z,13.57
2022-11-11T23:53:02.932Z,14.70
2022-11-11T23:55:57.217Z,15.20
2022-11-11T23:58:50.425Z,11.30
